Sitka Rocky Gutierrez Airport

Date: 2024-06-11 06:29:00Z

Type: SPECI

Weather: Light Rain

Winds: VRB° at 3 kts

Visibility: 3

Ceiling (AGL FT): Clouds SCATTERED at 700, OVERCAST at 2000, OVERCAST at 4400, BROKEN at 18000

RAW METAR: PASI 110629Z VRB03KT 3SM -RA BR SCT007 OVC020 09/07 A2984 RMK AO2 RAB07 P0001 T00890072

project-image